Time;durP1;ratioP1;P1;durP2;ratioP2;P2;SDS_P1;SDS_P2;PMS_P1;PMS_P2;Temp;Humidity;BMP_temperature;BMP_pressure;BME280_temperature;BME280_humidity;BME280_pressure;Samples;Min_cycle;Max_cycle;Signal;HPM_P1;HPM_P2
2021/11/09 00:01:37;;;;;;;13.98;4.82;;;;;;;;;;4982417;28;20117;-71
2021/11/09 00:04:06;;;;;;;13.95;4.20;;;;;;;;;;4975236;28;20463;-71
2021/11/09 00:06:38;;;;;;;16.42;4.93;;;;;;;;;;4985997;28;20081;-71
2021/11/09 00:09:10;;;;;;;21.77;6.05;;;;;;;;;;4976600;28;20034;-71
2021/11/09 00:11:36;;;;;;;18.42;4.50;;;;;;;;;;4961439;28;20018;-70
2021/11/09 00:14:02;;;;;;;19.30;5.75;;;;;;;;;;4985530;28;20028;-70
2021/11/09 00:16:30;;;;;;;18.45;5.07;;;;;;;;;;4962147;28;20061;-70
2021/11/09 00:18:56;;;;;;;16.60;5.05;;;;;;;;;;4966604;28;20113;-71
2021/11/09 00:21:22;;;;;;;12.88;4.75;;;;;;;;;;4956040;28;20022;-70
2021/11/09 00:23:48;;;;;;;14.88;5.85;;;;;;;;;;4990124;28;20044;-70
2021/11/09 00:26:15;;;;;;;16.02;4.47;;;;;;;;;;4974261;28;20019;-70
2021/11/09 00:28:41;;;;;;;18.73;5.20;;;;;;;;;;4988759;28;20097;-70
2021/11/09 00:31:07;;;;;;;30.23;9.35;;;;;;;;;;4976024;28;20038;-71
2021/11/09 00:33:33;;;;;;;15.25;5.25;;;;;;;;;;4975912;28;20026;-71
2021/11/09 00:36:00;;;;;;;16.83;5.78;;;;;;;;;;4975546;28;20035;-70
2021/11/09 00:38:26;;;;;;;27.55;8.15;;;;;;;;;;4978709;28;20042;-70
2021/11/09 00:40:53;;;;;;;24.00;5.38;;;;;;;;;;4985126;28;20034;-69
2021/11/09 00:43:19;;;;;;;14.18;5.25;;;;;;;;;;4976287;28;20074;-71
2021/11/09 00:45:46;;;;;;;20.92;5.72;;;;;;;;;;4975094;28;20419;-70
2021/11/09 00:48:12;;;;;;;22.85;6.97;;;;;;;;;;4976018;28;20519;-70
2021/11/09 00:50:39;;;;;;;23.10;6.75;;;;;;;;;;4981022;28;20034;-70
2021/11/09 00:53:05;;;;;;;27.10;7.35;;;;;;;;;;4975579;28;20042;-70
2021/11/09 00:55:31;;;;;;;17.02;6.20;;;;;;;;;;4979060;28;20105;-70
2021/11/09 00:57:57;;;;;;;16.17;5.72;;;;;;;;;;4975657;28;20105;-71
2021/11/09 01:00:26;;;;;;;18.45;4.90;;;;;;;;;;4975150;28;20520;-70
2021/11/09 01:02:53;;;;;;;18.83;6.07;;;;;;;;;;4980719;28;20034;-70
2021/11/09 01:05:23;;;;;;;28.50;6.13;;;;;;;;;;4973224;28;20035;-71
2021/11/09 01:07:57;;;;;;;23.55;5.88;;;;;;;;;;4961820;28;20053;-70
2021/11/09 01:10:24;;;;;;;27.63;7.30;;;;;;;;;;4970729;28;20069;-70
2021/11/09 01:12:51;;;;;;;27.45;6.80;;;;;;;;;;4982727;28;20038;-70
2021/11/09 01:15:17;;;;;;;15.73;6.65;;;;;;;;;;4972035;28;20061;-70
2021/11/09 01:17:43;;;;;;;17.92;6.47;;;;;;;;;;4979008;28;20039;-70
2021/11/09 01:20:12;;;;;;;22.83;5.95;;;;;;;;;;4975446;28;20104;-70
2021/11/09 01:22:38;;;;;;;16.58;5.55;;;;;;;;;;4978580;28;20027;-70
2021/11/09 01:25:05;;;;;;;24.45;6.72;;;;;;;;;;4955651;28;20488;-70
2021/11/09 01:27:31;;;;;;;19.45;6.07;;;;;;;;;;4977912;28;20034;-71
2021/11/09 01:29:57;;;;;;;23.33;6.18;;;;;;;;;;4980900;28;20045;-70
2021/11/09 01:32:23;;;;;;;21.52;7.30;;;;;;;;;;4964958;28;20480;-71
2021/11/09 01:34:49;;;;;;;20.38;7.35;;;;;;;;;;4979766;28;20102;-70
2021/11/09 01:37:15;;;;;;;22.20;7.45;;;;;;;;;;4982139;28;20038;-70
2021/11/09 01:39:42;;;;;;;26.08;7.40;;;;;;;;;;4958980;28;20038;-70
2021/11/09 01:42:08;;;;;;;19.92;7.40;;;;;;;;;;4972464;28;20491;-71
2021/11/09 01:44:34;;;;;;;22.92;7.57;;;;;;;;;;4955502;28;20058;-70
2021/11/09 01:47:00;;;;;;;21.75;7.10;;;;;;;;;;4973178;28;20026;-71
2021/11/09 01:49:26;;;;;;;24.30;8.20;;;;;;;;;;4979972;28;20105;-71
2021/11/09 01:51:52;;;;;;;31.25;9.25;;;;;;;;;;4974091;28;20022;-70
2021/11/09 01:54:18;;;;;;;19.92;7.88;;;;;;;;;;4979325;28;20182;-71
2021/11/09 01:56:44;;;;;;;27.02;8.80;;;;;;;;;;4974009;28;20031;-71
2021/11/09 01:59:10;;;;;;;26.65;9.00;;;;;;;;;;4967019;28;20097;-70
2021/11/09 02:01:37;;;;;;;31.23;9.73;;;;;;;;;;4967664;28;20164;-70
2021/11/09 02:04:05;;;;;;;30.83;9.30;;;;;;;;;;4979259;28;20031;-70
2021/11/09 02:06:31;;;;;;;24.15;9.70;;;;;;;;;;4979334;28;20047;-70
2021/11/09 02:08:58;;;;;;;27.23;9.70;;;;;;;;;;4973114;28;20034;-71
2021/11/09 02:11:24;;;;;;;30.13;10.13;;;;;;;;;;4960732;28;20026;-70
2021/11/09 02:13:50;;;;;;;35.88;10.23;;;;;;;;;;4974450;28;20385;-70
2021/11/09 02:16:16;;;;;;;25.67;9.02;;;;;;;;;;4977468;28;20564;-70
2021/11/09 02:18:42;;;;;;;42.45;10.55;;;;;;;;;;4979092;28;20105;-70
2021/11/09 02:21:10;;;;;;;48.25;11.98;;;;;;;;;;4980411;28;20097;-70
2021/11/09 02:23:37;;;;;;;32.08;11.10;;;;;;;;;;4979965;28;20619;-70
2021/11/09 02:26:04;;;;;;;37.00;11.98;;;;;;;;;;4977629;28;20034;-70
2021/11/09 02:28:30;;;;;;;34.35;10.80;;;;;;;;;;4983294;28;20041;-70
2021/11/09 02:30:56;;;;;;;37.95;10.27;;;;;;;;;;4979944;28;20058;-70
2021/11/09 02:33:22;;;;;;;41.55;12.35;;;;;;;;;;4976683;28;20023;-71
2021/11/09 02:35:48;;;;;;;29.67;9.95;;;;;;;;;;4977683;28;20025;-70
2021/11/09 02:38:15;;;;;;;30.83;10.40;;;;;;;;;;4982576;28;20053;-70
2021/11/09 02:40:41;;;;;;;38.83;11.50;;;;;;;;;;4978512;28;20041;-70
2021/11/09 02:43:09;;;;;;;32.25;11.52;;;;;;;;;;4983252;28;20535;-70
2021/11/09 02:48:33;;;;;;;33.20;10.88;;;;;;;;;;4951754;28;20097;-71
2021/11/09 02:51:06;;;;;;;32.63;9.05;;;;;;;;;;4978842;28;20076;-69
2021/11/09 02:53:38;;;;;;;40.15;10.60;;;;;;;;;;4974403;28;20065;-70
2021/11/09 02:56:12;;;;;;;25.58;8.77;;;;;;;;;;4979527;28;20030;-71
2021/11/09 02:58:54;;;;;;;37.33;10.93;;;;;;;;;;4976639;28;20060;-70
2021/11/09 03:01:38;;;;;;;35.03;10.07;;;;;;;;;;4983028;28;20031;-71
2021/11/09 03:07:22;;;;;;;27.98;9.50;;;;;;;;;;4969469;28;20070;-70
2021/11/09 03:10:03;;;;;;;37.22;9.27;;;;;;;;;;4972777;28;20042;-71
2021/11/09 03:12:32;;;;;;;26.67;9.23;;;;;;;;;;4989670;28;20018;-71
2021/11/09 03:14:59;;;;;;;28.17;9.18;;;;;;;;;;4978945;28;20035;-70
2021/11/09 03:17:32;;;;;;;24.92;7.75;;;;;;;;;;4980624;28;20023;-71
2021/11/09 03:19:59;;;;;;;29.13;9.23;;;;;;;;;;4986450;28;20061;-72
2021/11/09 03:44:33;;;;;;;35.42;8.27;;;;;;;;;;5014274;28;20115;-71
2021/11/09 03:47:01;;;;;;;30.58;8.68;;;;;;;;;;5004370;28;20022;-72
2021/11/09 03:49:29;;;;;;;31.73;9.18;;;;;;;;;;5007417;28;20023;-72
2021/11/09 03:51:56;;;;;;;32.03;9.05;;;;;;;;;;5010492;28;20029;-72
2021/11/09 03:54:30;;;;;;;33.92;10.63;;;;;;;;;;5005720;28;20010;-72
2021/11/09 03:57:03;;;;;;;24.83;10.07;;;;;;;;;;4991976;28;20026;-72
2021/11/09 04:02:20;;;;;;;33.45;8.73;;;;;;;;;;5000099;28;20026;-71
2021/11/09 04:05:05;;;;;;;32.58;9.10;;;;;;;;;;4999906;28;20019;-72
2021/11/09 04:07:40;;;;;;;42.35;12.70;;;;;;;;;;4997330;28;20058;-73
2021/11/09 04:15:29;;;;;;;50.45;12.77;;;;;;;;;;5009366;28;20031;-71
2021/11/09 04:18:15;;;;;;;33.38;10.27;;;;;;;;;;5006758;28;20094;-72
2021/11/09 04:27:01;;;;;;;29.92;9.15;;;;;;;;;;5000373;28;20034;-72
2021/11/09 04:39:43;;;;;;;29.02;7.25;;;;;;;;;;4983635;28;20125;-71
2021/11/09 04:50:43;;;;;;;24.85;8.55;;;;;;;;;;4981419;28;20126;-71
2021/11/09 05:09:40;;;;;;;35.78;10.52;;;;;;;;;;4983929;28;20098;-71
2021/11/09 05:12:07;;;;;;;28.40;9.88;;;;;;;;;;4983152;28;20015;-71
2021/11/09 05:14:33;;;;;;;34.53;10.60;;;;;;;;;;4963697;28;20031;-71
2021/11/09 05:17:01;;;;;;;38.53;9.45;;;;;;;;;;4988893;28;20113;-71
2021/11/09 05:19:27;;;;;;;21.92;9.50;;;;;;;;;;4986510;28;20031;-71
2021/11/09 05:21:53;;;;;;;28.85;10.23;;;;;;;;;;4990094;28;20034;-71
2021/11/09 05:24:19;;;;;;;32.45;10.90;;;;;;;;;;4988137;28;20059;-72
2021/11/09 05:26:45;;;;;;;32.72;11.70;;;;;;;;;;4988236;28;20030;-71
2021/11/09 05:29:11;;;;;;;35.13;10.82;;;;;;;;;;4982333;28;20471;-71
2021/11/09 05:31:37;;;;;;;34.25;9.98;;;;;;;;;;4986681;28;20097;-71
2021/11/09 05:34:04;;;;;;;30.95;11.48;;;;;;;;;;4978580;28;20026;-71
2021/11/09 05:36:36;;;;;;;34.20;10.60;;;;;;;;;;4965682;28;20027;-71
2021/11/09 05:39:18;;;;;;;38.58;11.52;;;;;;;;;;4990827;28;20026;-71
2021/11/09 05:41:46;;;;;;;28.95;11.43;;;;;;;;;;4973032;28;20037;-71
2021/11/09 05:44:12;;;;;;;38.85;11.13;;;;;;;;;;4986174;28;20479;-71
2021/11/09 05:46:39;;;;;;;33.47;12.18;;;;;;;;;;4985922;28;20038;-71
2021/11/09 05:49:05;;;;;;;40.22;13.32;;;;;;;;;;4985681;28;20477;-71
2021/11/09 05:51:31;;;;;;;40.67;14.25;;;;;;;;;;4981444;28;20038;-71
2021/11/09 05:53:57;;;;;;;41.85;13.25;;;;;;;;;;4975104;28;20039;-71
2021/11/09 05:56:23;;;;;;;46.28;14.55;;;;;;;;;;4985728;28;20030;-71
2021/11/09 05:58:49;;;;;;;35.70;13.85;;;;;;;;;;4977607;28;20162;-72
2021/11/09 06:01:16;;;;;;;34.47;13.90;;;;;;;;;;4972217;28;20034;-72
2021/11/09 06:03:42;;;;;;;33.33;12.38;;;;;;;;;;4977128;28;20495;-71
2021/11/09 06:06:08;;;;;;;33.83;12.98;;;;;;;;;;4990420;28;20034;-72
2021/11/09 06:08:34;;;;;;;37.42;12.10;;;;;;;;;;4973801;28;20041;-72
2021/11/09 06:11:00;;;;;;;32.92;12.13;;;;;;;;;;4983916;28;20022;-71
2021/11/09 06:13:26;;;;;;;35.63;13.63;;;;;;;;;;4983519;28;20030;-72
2021/11/09 06:15:52;;;;;;;43.42;14.27;;;;;;;;;;4958486;28;20408;-71
2021/11/09 06:18:17;;;;;;;37.78;12.48;;;;;;;;;;4990649;28;20026;-71
2021/11/09 06:20:43;;;;;;;34.83;11.70;;;;;;;;;;4979741;28;20052;-71
2021/11/09 06:23:09;;;;;;;36.78;11.80;;;;;;;;;;4965490;28;20037;-71
2021/11/09 06:25:35;;;;;;;37.60;11.52;;;;;;;;;;4978621;28;20053;-71
2021/11/09 06:28:04;;;;;;;35.00;13.55;;;;;;;;;;4988916;28;20065;-71
2021/11/09 06:30:30;;;;;;;39.10;13.25;;;;;;;;;;4972129;28;20037;-71
2021/11/09 06:32:56;;;;;;;27.00;12.15;;;;;;;;;;4990609;28;20093;-71
2021/11/09 06:35:22;;;;;;;37.03;12.38;;;;;;;;;;4989112;28;20522;-71
2021/11/09 06:37:48;;;;;;;30.65;11.85;;;;;;;;;;4984335;28;20022;-71
2021/11/09 06:40:14;;;;;;;40.63;12.05;;;;;;;;;;4981150;28;20091;-71
2021/11/09 06:42:41;;;;;;;39.53;12.35;;;;;;;;;;4976521;28;20034;-71
2021/11/09 06:45:07;;;;;;;38.72;12.30;;;;;;;;;;4980869;28;20053;-72
2021/11/09 06:47:33;;;;;;;38.40;11.95;;;;;;;;;;4980563;28;20018;-72
2021/11/09 06:49:59;;;;;;;34.38;13.93;;;;;;;;;;4979029;28;20042;-72
2021/11/09 06:52:25;;;;;;;40.22;12.00;;;;;;;;;;4987768;28;20027;-72
2021/11/09 06:54:52;;;;;;;45.85;16.70;;;;;;;;;;4984076;28;20030;-71
2021/11/09 06:57:18;;;;;;;29.67;12.07;;;;;;;;;;4976043;28;20082;-71
2021/11/09 06:59:47;;;;;;;47.03;13.73;;;;;;;;;;4976673;28;20054;-73
2021/11/09 07:02:13;;;;;;;41.10;13.13;;;;;;;;;;4975422;28;20488;-72
2021/11/09 07:04:39;;;;;;;39.40;12.65;;;;;;;;;;4975129;28;20034;-71
2021/11/09 07:07:06;;;;;;;36.92;13.15;;;;;;;;;;4974300;28;20533;-71
2021/11/09 07:09:32;;;;;;;37.92;13.52;;;;;;;;;;4976334;28;20034;-72
2021/11/09 07:11:58;;;;;;;44.70;15.10;;;;;;;;;;4977233;28;20461;-70
2021/11/09 07:14:24;;;;;;;36.30;12.13;;;;;;;;;;4986565;28;20088;-69
2021/11/09 07:16:52;;;;;;;40.75;13.95;;;;;;;;;;4977886;28;20097;-71
2021/11/09 07:19:18;;;;;;;31.75;12.18;;;;;;;;;;4986750;28;20054;-70
2021/11/09 07:21:46;;;;;;;41.63;13.10;;;;;;;;;;4980444;28;20061;-71
2021/11/09 07:24:12;;;;;;;36.90;14.60;;;;;;;;;;4976131;28;20096;-70
2021/11/09 07:26:38;;;;;;;33.05;12.32;;;;;;;;;;4983780;28;20038;-70
2021/11/09 07:29:04;;;;;;;31.90;12.45;;;;;;;;;;4982031;28;20487;-71
2021/11/09 07:31:32;;;;;;;37.88;13.45;;;;;;;;;;4985733;28;20035;-71
2021/11/09 07:33:58;;;;;;;31.88;12.95;;;;;;;;;;4987091;28;20114;-71
2021/11/09 07:36:25;;;;;;;36.90;12.85;;;;;;;;;;4990037;28;20093;-72
2021/11/09 07:38:51;;;;;;;34.55;11.82;;;;;;;;;;4981804;28;20039;-72
2021/11/09 07:41:18;;;;;;;39.10;13.20;;;;;;;;;;4978997;28;20038;-72
2021/11/09 07:43:44;;;;;;;54.85;16.58;;;;;;;;;;4975827;28;20026;-72
2021/11/09 07:46:10;;;;;;;44.75;14.85;;;;;;;;;;4957179;28;20085;-72
2021/11/09 07:48:36;;;;;;;36.78;14.98;;;;;;;;;;4981523;28;20026;-72
2021/11/09 07:51:03;;;;;;;40.15;13.45;;;;;;;;;;4984037;28;20057;-73
2021/11/09 07:53:30;;;;;;;46.25;14.90;;;;;;;;;;5006640;23;20049;-72
2021/11/09 07:56:16;;;;;;;42.25;13.52;;;;;;;;;;4985428;28;20395;-72
2021/11/09 08:01:38;;;;;;;43.85;14.40;;;;;;;;;;5009100;28;20037;-72
2021/11/09 08:11:53;;;;;;;39.70;15.35;;;;;;;;;;5007350;28;20108;-72
2021/11/09 08:14:19;;;;;;;37.10;14.02;;;;;;;;;;5004985;28;20101;-72
2021/11/09 08:16:49;;;;;;;43.92;15.00;;;;;;;;;;4995333;28;20054;-72
2021/11/09 08:19:16;;;;;;;39.40;15.35;;;;;;;;;;5009752;28;20033;-72
2021/11/09 08:21:42;;;;;;;38.40;14.45;;;;;;;;;;5013369;28;20029;-72
2021/11/09 08:24:09;;;;;;;42.15;14.73;;;;;;;;;;4990010;28;20041;-72
2021/11/09 08:26:35;;;;;;;52.47;16.45;;;;;;;;;;5004113;28;20523;-72
2021/11/09 08:29:05;;;;;;;44.63;14.90;;;;;;;;;;5011664;28;20409;-72
2021/11/09 08:31:32;;;;;;;34.10;15.32;;;;;;;;;;5010741;28;20108;-73
2021/11/09 08:33:59;;;;;;;43.72;15.20;;;;;;;;;;5001291;28;20038;-75
2021/11/09 08:36:31;;;;;;;50.03;15.40;;;;;;;;;;4991062;28;20033;-73
2021/11/09 08:38:58;;;;;;;42.60;14.55;;;;;;;;;;5009104;28;20034;-74
2021/11/09 08:41:27;;;;;;;39.70;13.23;;;;;;;;;;5008167;28;20026;-74
2021/11/09 08:44:04;;;;;;;31.65;13.13;;;;;;;;;;4995109;28;20106;-74
2021/11/09 08:46:34;;;;;;;36.95;14.18;;;;;;;;;;5009507;28;20057;-74
2021/11/09 08:49:02;;;;;;;44.38;14.57;;;;;;;;;;5007493;28;20486;-74
2021/11/09 08:51:28;;;;;;;42.70;15.30;;;;;;;;;;5003454;28;20046;-75
2021/11/09 08:53:59;;;;;;;41.83;12.77;;;;;;;;;;5002405;28;20758;-73
2021/11/09 08:56:50;;;;;;;33.08;13.10;;;;;;;;;;4992059;28;20033;-74
2021/11/09 09:04:46;;;;;;;36.80;11.90;;;;;;;;;;5007447;28;20092;-75
2021/11/09 09:07:12;;;;;;;34.97;11.77;;;;;;;;;;4990946;28;20022;-75
2021/11/09 09:09:38;;;;;;;34.08;12.45;;;;;;;;;;5010355;28;20111;-75
2021/11/09 09:12:04;;;;;;;39.78;13.68;;;;;;;;;;5009442;28;20786;-74
2021/11/09 09:14:30;;;;;;;31.73;10.95;;;;;;;;;;5009791;28;20025;-74
2021/11/09 09:16:58;;;;;;;37.55;11.90;;;;;;;;;;4991130;28;20091;-73
2021/11/09 09:19:32;;;;;;;45.08;15.68;;;;;;;;;;5010861;28;20113;-75
2021/11/09 09:22:08;;;;;;;37.53;12.15;;;;;;;;;;4992091;28;20034;-75
2021/11/09 09:27:23;;;;;;;47.33;14.00;;;;;;;;;;5006631;28;20427;-75
2021/11/09 09:54:29;;;;;;;37.13;11.75;;;;;;;;;;5011014;28;20049;-73
2021/11/09 09:56:57;;;;;;;27.45;8.88;;;;;;;;;;4992659;28;20022;-73
2021/11/09 09:59:25;;;;;;;26.90;9.77;;;;;;;;;;4987323;28;20030;-73
2021/11/09 10:02:24;;;;;;;29.88;13.00;;;;;;;;;;4998412;28;20118;-73
2021/11/09 10:04:50;;;;;;;26.77;10.35;;;;;;;;;;4962794;28;20145;-72
2021/11/09 10:07:26;;;;;;;23.45;9.25;;;;;;;;;;4996739;28;20510;-73
2021/11/09 10:09:52;;;;;;;25.52;9.50;;;;;;;;;;5001135;28;20054;-72
2021/11/09 10:12:29;;;;;;;24.38;9.57;;;;;;;;;;4991951;28;20129;-73
2021/11/09 10:14:56;;;;;;;27.73;8.90;;;;;;;;;;5002635;28;20479;-73
2021/11/09 10:17:23;;;;;;;32.28;10.50;;;;;;;;;;4999315;28;20021;-73
2021/11/09 10:19:49;;;;;;;28.95;10.00;;;;;;;;;;4992528;28;20026;-73
2021/11/09 10:22:20;;;;;;;40.70;11.55;;;;;;;;;;4987874;28;20035;-73
2021/11/09 10:24:58;;;;;;;41.25;11.05;;;;;;;;;;4997346;28;20057;-73
2021/11/09 10:27:25;;;;;;;22.38;8.35;;;;;;;;;;5002343;28;20038;-73
2021/11/09 10:29:53;;;;;;;29.92;9.38;;;;;;;;;;4978183;28;20034;-73
2021/11/09 10:32:24;;;;;;;31.40;10.38;;;;;;;;;;5010227;28;20014;-71
2021/11/09 10:34:51;;;;;;;30.58;10.20;;;;;;;;;;5010736;28;20029;-71
2021/11/09 10:37:26;;;;;;;36.88;10.25;;;;;;;;;;4996660;28;20018;-71
2021/11/09 10:39:53;;;;;;;24.70;8.85;;;;;;;;;;4982989;28;20479;-73
2021/11/09 10:42:22;;;;;;;27.35;10.23;;;;;;;;;;4980710;28;20030;-72
2021/11/09 10:44:57;;;;;;;26.10;8.80;;;;;;;;;;5008087;28;20037;-72
2021/11/09 10:47:24;;;;;;;31.08;10.00;;;;;;;;;;5002184;28;20036;-72
2021/11/09 10:49:54;;;;;;;22.60;8.43;;;;;;;;;;5008100;28;20026;-72
2021/11/09 10:52:29;;;;;;;26.92;9.45;;;;;;;;;;5006911;28;20064;-72
2021/11/09 10:57:33;;;;;;;27.23;8.43;;;;;;;;;;5006179;28;20064;-72
2021/11/09 11:00:14;;;;;;;27.52;9.95;;;;;;;;;;5007201;28;20351;-72
2021/11/09 11:05:24;;;;;;;27.38;9.45;;;;;;;;;;5007288;28;20036;-72
2021/11/09 11:08:00;;;;;;;31.25;10.55;;;;;;;;;;5005077;28;20033;-72
2021/11/09 11:10:30;;;;;;;29.73;10.88;;;;;;;;;;4998393;28;20502;-72
2021/11/09 11:13:16;;;;;;;25.80;9.55;;;;;;;;;;5000615;28;20037;-72
2021/11/09 11:16:01;;;;;;;32.95;9.45;;;;;;;;;;4991763;28;20454;-73
2021/11/09 11:18:38;;;;;;;27.98;10.23;;;;;;;;;;5007738;28;20068;-72
2021/11/09 11:21:04;;;;;;;38.35;11.20;;;;;;;;;;5007372;28;20632;-73
2021/11/09 11:23:30;;;;;;;45.05;11.05;;;;;;;;;;5004927;28;20032;-73
2021/11/09 11:25:57;;;;;;;29.48;10.48;;;;;;;;;;5007100;28;20030;-73
2021/11/09 11:28:24;;;;;;;29.85;11.13;;;;;;;;;;5008417;28;20029;-72
2021/11/09 11:30:52;;;;;;;26.40;10.05;;;;;;;;;;5001269;28;20060;-73
2021/11/09 11:33:18;;;;;;;28.55;9.15;;;;;;;;;;5003752;28;20018;-73
2021/11/09 11:35:45;;;;;;;32.65;11.15;;;;;;;;;;5023884;28;20603;-73
2021/11/09 11:38:11;;;;;;;37.13;11.23;;;;;;;;;;5015016;28;20022;-73
2021/11/09 11:40:37;;;;;;;24.20;8.40;;;;;;;;;;5011525;28;20386;-73
2021/11/09 11:43:03;;;;;;;25.73;10.02;;;;;;;;;;5005098;28;20041;-73
2021/11/09 11:45:44;;;;;;;33.00;11.65;;;;;;;;;;5009517;28;20407;-73
2021/11/09 11:48:11;;;;;;;32.80;12.38;;;;;;;;;;4992215;28;20560;-73
2021/11/09 11:50:40;;;;;;;29.38;10.60;;;;;;;;;;5009887;28;20442;-74
2021/11/09 11:53:06;;;;;;;31.33;9.88;;;;;;;;;;5009027;28;20390;-73
2021/11/09 11:55:33;;;;;;;31.20;11.52;;;;;;;;;;5010573;28;20026;-74
2021/11/09 11:58:08;;;;;;;31.50;11.10;;;;;;;;;;5009716;28;20032;-75
2021/11/09 12:00:39;;;;;;;27.42;11.07;;;;;;;;;;4985845;28;20288;-75
2021/11/09 12:03:24;;;;;;;26.77;10.40;;;;;;;;;;5002758;28;20081;-73
2021/11/09 12:05:53;;;;;;;35.10;12.40;;;;;;;;;;5003993;28;20029;-74
2021/11/09 12:08:36;;;;;;;32.22;11.30;;;;;;;;;;5007444;28;20471;-74
2021/11/09 12:11:04;;;;;;;32.47;11.10;;;;;;;;;;5005209;28;20497;-75
2021/11/09 12:13:30;;;;;;;31.92;9.68;;;;;;;;;;5000947;28;20023;-74
2021/11/09 12:15:57;;;;;;;24.05;9.02;;;;;;;;;;5012049;28;20030;-74
2021/11/09 12:18:34;;;;;;;27.17;9.32;;;;;;;;;;4989417;28;20041;-74
2021/11/09 12:21:08;;;;;;;28.35;10.07;;;;;;;;;;5002996;28;21137;-74
2021/11/09 12:23:35;;;;;;;29.30;10.40;;;;;;;;;;5007615;28;20026;-75
2021/11/09 12:26:01;;;;;;;24.40;9.82;;;;;;;;;;5011969;28;20021;-74
2021/11/09 12:28:32;;;;;;;35.53;10.88;;;;;;;;;;5012309;28;20502;-74
2021/11/09 12:30:58;;;;;;;26.30;10.48;;;;;;;;;;5005682;28;20475;-74
2021/11/09 12:33:24;;;;;;;28.83;12.80;;;;;;;;;;5002078;28;20028;-74
2021/11/09 12:36:11;;;;;;;33.25;13.35;;;;;;;;;;5010759;28;20026;-74
2021/11/09 12:38:37;;;;;;;36.70;13.23;;;;;;;;;;4991259;28;20037;-75
2021/11/09 12:41:29;;;;;;;27.77;12.80;;;;;;;;;;4996687;28;20395;-74
2021/11/09 12:44:00;;;;;;;35.08;14.35;;;;;;;;;;5009273;28;20636;-75
2021/11/09 12:46:28;;;;;;;36.38;11.75;;;;;;;;;;5010922;28;20069;-74
2021/11/09 12:49:00;;;;;;;33.53;11.70;;;;;;;;;;5012356;28;20030;-75
2021/11/09 12:51:37;;;;;;;39.83;11.60;;;;;;;;;;5011914;28;20679;-74
2021/11/09 12:54:05;;;;;;;39.95;12.30;;;;;;;;;;5002800;28;20026;-75
2021/11/09 12:56:32;;;;;;;42.95;14.75;;;;;;;;;;4981655;28;20117;-74
2021/11/09 12:59:04;;;;;;;36.55;11.30;;;;;;;;;;5012432;28;20031;-74
2021/11/09 13:01:39;;;;;;;37.95;12.05;;;;;;;;;;4989818;28;20030;-73
2021/11/09 13:04:24;;;;;;;39.28;11.50;;;;;;;;;;5005421;28;20026;-73
2021/11/09 13:07:39;;;;;;;37.08;11.77;;;;;;;;;;4984242;28;20033;-74
2021/11/09 13:09:59;;;;;;;33.05;10.35;;;;;;;;;;5002403;28;20032;-74
2021/11/09 13:12:27;;;;;;;39.38;13.43;;;;;;;;;;4983834;28;20058;-73
2021/11/09 13:15:01;;;;;;;39.45;11.77;;;;;;;;;;5005202;28;20551;-73
2021/11/09 13:17:33;;;;;;;36.05;10.48;;;;;;;;;;4988314;28;20049;-75
2021/11/09 13:20:01;;;;;;;34.97;11.80;;;;;;;;;;5016257;28;20831;-74
2021/11/09 13:22:30;;;;;;;32.78;10.18;;;;;;;;;;5012829;28;20080;-74
2021/11/09 13:24:58;;;;;;;26.73;8.23;;;;;;;;;;5009797;28;20164;-72
2021/11/09 13:27:39;;;;;;;27.38;7.22;;;;;;;;;;5009058;28;20458;-74
2021/11/09 13:30:13;;;;;;;24.02;7.25;;;;;;;;;;4999721;28;20442;-74
2021/11/09 13:32:39;;;;;;;26.75;6.97;;;;;;;;;;4988491;28;20077;-74
2021/11/09 13:35:19;;;;;;;16.75;6.28;;;;;;;;;;5007376;28;20026;-74
2021/11/09 13:37:45;;;;;;;;;;;;;;;;;;5010540;28;20088;-72
2021/11/09 13:40:11;;;;;;;16.23;5.50;;;;;;;;;;4991235;28;20342;-72
2021/11/09 13:42:38;;;;;;;23.23;7.20;;;;;;;;;;5008580;28;20527;-72
2021/11/09 13:45:11;;;;;;;22.42;5.78;;;;;;;;;;4992610;28;20022;-72
2021/11/09 13:47:38;;;;;;;18.92;5.50;;;;;;;;;;5006950;28;20030;-73
2021/11/09 13:50:10;;;;;;;19.77;5.47;;;;;;;;;;4996294;28;20471;-73
2021/11/09 13:52:41;;;;;;;14.40;5.38;;;;;;;;;;4991923;28;20559;-72
2021/11/09 13:55:07;;;;;;;13.82;5.53;;;;;;;;;;4986414;28;20032;-73
2021/11/09 13:57:33;;;;;;;18.63;4.60;;;;;;;;;;5007646;28;20108;-73
2021/11/09 14:00:16;;;;;;;23.67;6.28;;;;;;;;;;5006487;28;20580;-74
2021/11/09 14:02:47;;;;;;;14.15;5.82;;;;;;;;;;5009764;28;20034;-74
2021/11/09 14:08:08;;;;;;;19.13;4.97;;;;;;;;;;5009661;28;20037;-75
2021/11/09 14:10:47;;;;;;;15.77;4.00;;;;;;;;;;5009694;28;20014;-74
2021/11/09 14:16:02;;;;;;;11.80;4.15;;;;;;;;;;5010284;28;20030;-74
2021/11/09 14:18:28;;;;;;;18.85;5.43;;;;;;;;;;4990232;28;20034;-74
2021/11/09 14:20:58;;;;;;;15.73;4.40;;;;;;;;;;5010094;28;20026;-74
2021/11/09 14:23:29;;;;;;;18.58;4.13;;;;;;;;;;5010739;28;20490;-74
2021/11/09 14:25:55;;;;;;;15.65;4.07;;;;;;;;;;5008337;28;20487;-74
2021/11/09 14:28:35;;;;;;;13.95;3.80;;;;;;;;;;5008401;28;20014;-74
2021/11/09 14:31:35;;;;;;;10.05;4.28;;;;;;;;;;4992838;28;20109;-73
2021/11/09 14:34:12;;;;;;;13.02;4.72;;;;;;;;;;4960073;28;20487;-73
2021/11/09 14:36:39;;;;;;;9.23;3.88;;;;;;;;;;5008271;28;20026;-74
2021/11/09 14:39:16;;;;;;;16.02;3.72;;;;;;;;;;4992321;28;20026;-74
2021/11/09 14:42:05;;;;;;;9.00;4.95;;;;;;;;;;5010481;28;20594;-74
2021/11/09 14:44:50;;;;;;;15.70;3.95;;;;;;;;;;5006334;28;20029;-74
2021/11/09 14:47:20;;;;;;;17.52;4.47;;;;;;;;;;5011076;28;20083;-74
2021/11/09 14:49:56;;;;;;;12.05;3.70;;;;;;;;;;4992038;28;20506;-74
2021/11/09 14:52:26;;;;;;;12.75;3.78;;;;;;;;;;4992700;28;20029;-74
2021/11/09 14:54:56;;;;;;;14.77;4.65;;;;;;;;;;4992237;28;20058;-74
2021/11/09 14:57:31;;;;;;;12.93;4.35;;;;;;;;;;5010480;28;20017;-74
2021/11/09 15:00:08;;;;;;;12.70;4.55;;;;;;;;;;5009026;28;20076;-74
2021/11/09 15:02:34;;;;;;;12.35;4.25;;;;;;;;;;5001943;28;20038;-74
2021/11/09 15:05:00;;;;;;;11.60;4.38;;;;;;;;;;5009087;28;20512;-74
2021/11/09 15:07:31;;;;;;;13.38;5.22;;;;;;;;;;4992363;28;20029;-74
2021/11/09 15:10:43;;;;;;;14.73;4.50;;;;;;;;;;4991825;28;20037;-74
2021/11/09 15:26:28;;;;;;;15.10;5.03;;;;;;;;;;5013788;28;20041;-74
2021/11/09 15:28:58;;;;;;;16.27;4.75;;;;;;;;;;5013564;28;20022;-75
2021/11/09 15:31:29;;;;;;;19.13;5.28;;;;;;;;;;5013680;28;20018;-74
2021/11/09 15:39:27;;;;;;;9.60;4.20;;;;;;;;;;5013162;28;20040;-75
2021/11/09 15:41:55;;;;;;;17.65;5.50;;;;;;;;;;5014140;28;20026;-74
2021/11/09 15:44:22;;;;;;;12.27;4.32;;;;;;;;;;5013583;28;20049;-74
2021/11/09 15:46:54;;;;;;;14.35;4.78;;;;;;;;;;5013992;28;20052;-73
2021/11/09 15:49:20;;;;;;;18.30;4.60;;;;;;;;;;5013809;28;20018;-74
2021/11/09 15:51:46;;;;;;;16.50;7.25;;;;;;;;;;5012156;28;20080;-74
2021/11/09 15:54:12;;;;;;;13.60;4.47;;;;;;;;;;5010357;28;20064;-74
2021/11/09 15:56:39;;;;;;;16.75;4.88;;;;;;;;;;4988658;28;20029;-74
2021/11/09 15:59:05;;;;;;;13.60;5.75;;;;;;;;;;5012299;28;20325;-75
2021/11/09 16:01:32;;;;;;;16.40;5.05;;;;;;;;;;4991322;28;20079;-74
2021/11/09 16:03:58;;;;;;;18.45;5.15;;;;;;;;;;5009954;28;20037;-75
2021/11/09 16:06:27;;;;;;;16.50;5.63;;;;;;;;;;4990186;28;20503;-74
2021/11/09 16:08:54;;;;;;;15.57;5.50;;;;;;;;;;5011885;28;20061;-75
2021/11/09 16:11:20;;;;;;;18.92;5.78;;;;;;;;;;4993798;28;20120;-74
2021/11/09 16:13:46;;;;;;;19.02;6.15;;;;;;;;;;4994065;28;20165;-75
2021/11/09 16:16:12;;;;;;;15.63;5.90;;;;;;;;;;5013658;28;20441;-74
2021/11/09 16:18:38;;;;;;;19.65;6.57;;;;;;;;;;5019138;28;20022;-75
2021/11/09 16:21:06;;;;;;;16.48;6.13;;;;;;;;;;5025688;28;20030;-74
2021/11/09 16:23:32;;;;;;;15.63;5.20;;;;;;;;;;5026277;28;20211;-74
2021/11/09 16:25:58;;;;;;;20.55;7.60;;;;;;;;;;5008426;28;20025;-74
2021/11/09 16:28:24;;;;;;;18.23;6.50;;;;;;;;;;5010841;28;20085;-73
2021/11/09 16:30:51;;;;;;;22.42;6.90;;;;;;;;;;5012737;28;20029;-74
2021/11/09 16:33:22;;;;;;;22.77;7.05;;;;;;;;;;5012426;28;20022;-75
2021/11/09 16:35:51;;;;;;;14.68;6.97;;;;;;;;;;5010605;28;20113;-74
2021/11/09 16:38:25;;;;;;;17.92;5.95;;;;;;;;;;5010437;28;20048;-74
2021/11/09 16:40:52;;;;;;;17.17;6.80;;;;;;;;;;5006527;28;20018;-74
2021/11/09 16:43:55;;;;;;;13.10;6.18;;;;;;;;;;5010975;28;20476;-74
2021/11/09 16:51:39;;;;;;;15.30;7.30;;;;;;;;;;5010115;28;20132;-74
2021/11/09 16:54:13;;;;;;;17.65;6.80;;;;;;;;;;5009503;28;20030;-74
2021/11/09 17:02:10;;;;;;;21.80;8.95;;;;;;;;;;5008197;28;20030;-74
2021/11/09 17:07:49;;;;;;;30.63;9.35;;;;;;;;;;5005885;28;19905;-74
2021/11/09 17:20:42;;;;;;;18.40;9.32;;;;;;;;;;5010324;28;20041;-74
2021/11/09 18:02:05;;;;;;;23.60;10.25;;;;;;;;;;5002917;28;20042;-74
2021/11/09 18:03:09;;;;;;;32.17;9.45;;;;;;;;;;5006886;28;20457;-74
2021/11/09 18:12:45;;;;;;;35.58;9.95;;;;;;;;;;5010156;28;20041;-74
2021/11/09 18:16:30;;;;;;;28.17;9.63;;;;;;;;;;5003965;28;20045;-74
2021/11/09 18:21:40;;;;;;;25.58;9.90;;;;;;;;;;5003685;28;20064;-75